Airfield :
LOGIN :

Register | Disclaimer

   EN    FR    IT 

 










Legend :    VFR   Marginal VFR   IFR   Intensive IFR   Very Intensive IFR
Visi :
Ceiling :
>= 8 km
>= 3000ft
5 to 8 km
1000 to 3000 ft
1500m to 5 km
500 to 1000 ft
800 to 1500m
200 to 500 ft
< 800m
< 200 ft
Symbols :   Thunderstorms  Fog  Heavy snow  Heavy precipitations  Wind > 20 kt
SIGMETs :     Misc.  Thunderstorms  Icing  Turbulence  Mountain Waves  Volcanic Ashes






- Airport Elevation : 14 ft
- IATA code : BRE


EDDW - Bremen Neuenland

CURRENT METAR :
  • 190250Z 24012KT 9999 -RA FEW016 BKN023 05/04 Q1008

EXPIRED METARs :
  • 190220Z 25017KT 7000 -RA FEW005 BKN017 06/05 Q1008
  • 190150Z 21012KT 9999 -RA BKN019 06/04 Q1008
  • 190120Z 20013KT 9999 -RA BKN022 07/04 Q1009
  • 190050Z 21015KT 9999 BKN023 07/03 Q1009
  • 190020Z 21015KT 9999 BKN023 07/03 Q1010

TAF TAF EDDW
Valid from the 19 at 00:00 until the 20 at 00:00 UTC


182300Z 1900/1924 22015G25KT 9999 BKN020
TEMPO 1901/1905 RA BKN012
BECMG 1904/1906 27015KT
TEMPO 1905/1908 BKN012
BECMG 1908/1910 28015G30KT
PROB30
TEMPO 1908/1910 SHRA BKN014CB
PROB30
TEMPO 1910/1914 SHRA SCT020CB
TEMPO 1911/1915 29020G30KT
BECMG 1916/1918 26012KT



MET'MAP, your aeronautical weather chart ! - Copyright ORBIFLY December 2007 - Disclaimer

ORBIFLY MET'MAP TEAM :

Programming & Development : Alexandra Zaïnal
Concept & original design : Baudouin d'Aumeries
Assistance for programming : Marc-Olivier Méhu
Technical & hardware support : Manuel Goepfert

Contact : metmap@orbifly.com




SOURCES & CREDITS :

   NOAA